Decoded Metar for PARY (RUBY in AK, USA) (IATA:RBY) | Meteo·Mobile Aviation Weather
aviador You're here:

PARY Decoded Metar

RUBY in AK, USA
Report Time2019-05-21 08:56:00
UTC Time2019-05-21 09:38:04
Flight Rules vfr VFR
Wind100° at 09 kt
W.Decomp.*RWY 03: 5.8 kt HW 6.9 kt RCW
Visibility9999 m
Phenomena:N/A
Clouds:Overcast 037 Hf
Expected CloudBase > 800 ft AGL from Temp-Dew spread
Ceiling3,700 ft
Temp08°C (ISA -6)
Dew Point06°C (87% RH)
AAT3.8°C
QNH1010 hPa
Density Alt200 ft
Elevation653 ft
Report Wrong Elevation
Raw Report
PARY 210856Z AUTO 10009KT 10SM OVC037 08/06 A2982=

Extra information for PARY:More info

Metar Taf Metar & Taf Last 4 Metars F.Rules Stats Wind Profile Meteogram Temp Stats Airport Information Weather charts Add Link Nearby VenuesMetar ALERT Operation Metar Decoded Social comments

AIRNAV info for PARY